IE-0033 weather

Stradbelly Airstrip
County Laois, Ireland

Public forecast

Using degrees Celsius for public forecast. Weather courtesy of forecast.io.

Closest aviation weather report (METAR) to Stradbelly Airstrip

Closest report is Casement Air Base, 29.9 nm (55.4 km) ENE. Retrieved 2019/12/08 20:00 UTC (47 minutes ago):

EIME 082000Z 23019KT 9999 BKN015 BKN018 05/04 Q0987

Closest aviation forecast (TAF) to Stradbelly Airstrip

Closest forecast is Dublin Airport, 39.3 nm (72.8 km) NE. Retrieved 2019/12/08 18:09 UTC (3 hours ago):

TAF EIDW 081700Z 0818/0918 25018G28KT 9999 FEW014 SCT035 TEMPO 0818/0903 5000 SHRA BKN012 BKN018CB TEMPO 0818/0822 26023G38KT BECMG 0822/0824 30028G48KT BECMG 0902/0904 30023G38KT BECMG 0907/0909 30012KT BECMG 0914/0916 24006KT